createdAt,value
2023-03-08T00:01:54.921Z,99665.72
2023-03-08T00:04:21.397Z,99676.34
2023-03-08T00:06:47.823Z,99679.28
2023-03-08T00:09:14.175Z,99675.34
2023-03-08T00:11:40.492Z,99672.63
2023-03-08T00:14:06.821Z,99676.78
2023-03-08T00:16:33.197Z,99685.41
2023-03-08T00:18:59.514Z,99683.63
2023-03-08T00:21:25.845Z,99679.41
2023-03-08T00:23:54.177Z,99675.03
2023-03-08T00:26:20.553Z,99674.25
2023-03-08T00:28:47.361Z,99671.03
2023-03-08T00:31:14.235Z,99672.72
2023-03-08T00:33:40.985Z,99666.06
2023-03-08T00:36:13.777Z,99667.06
2023-03-08T00:38:40.176Z,99666.84
2023-03-08T00:41:06.491Z,99664.13
2023-03-08T00:43:33.630Z,99662.28
2023-03-08T00:46:04.281Z,99679.00
2023-03-08T00:48:31.033Z,99671.59
2023-03-08T00:50:57.378Z,99674.47
2023-03-08T00:53:23.760Z,99669.09
2023-03-08T00:55:52.549Z,99674.25
2023-03-08T00:58:19.676Z,99670.38
2023-03-08T01:00:46.524Z,99645.81
2023-03-08T01:03:13.148Z,99645.16
2023-03-08T01:05:45.703Z,99659.56
2023-03-08T01:08:14.041Z,99668.88
2023-03-08T01:10:40.513Z,99656.88
2023-03-08T01:13:08.240Z,99655.91
2023-03-08T01:15:38.394Z,99644.31
2023-03-08T01:18:06.282Z,99642.47
2023-03-08T01:20:33.492Z,99644.09
2023-03-08T01:22:59.959Z,99641.47
2023-03-08T01:25:27.042Z,99643.19
2023-03-08T01:27:53.535Z,99644.25
2023-03-08T01:30:20.431Z,99628.22
2023-03-08T01:32:47.191Z,99631.94
2023-03-08T01:35:13.644Z,99625.59
2023-03-08T01:37:40.089Z,99625.66
2023-03-08T01:40:08.662Z,99629.91
2023-03-08T01:42:38.464Z,99622.72
2023-03-08T01:45:07.099Z,99615.03
2023-03-08T01:47:38.695Z,99623.63
2023-03-08T01:50:14.854Z,99620.38
2023-03-08T01:52:46.954Z,99615.19
2023-03-08T01:55:15.780Z,99608.06
2023-03-08T01:57:45.558Z,99609.06
2023-03-08T02:00:19.109Z,99595.88
2023-03-08T02:02:51.891Z,99595.81
2023-03-08T02:05:19.168Z,99595.66
2023-03-08T02:07:48.796Z,99586.63
2023-03-08T02:10:17.075Z,99585.06
2023-03-08T02:12:44.698Z,99583.09
2023-03-08T02:15:14.387Z,99572.66
2023-03-08T02:17:43.201Z,99575.97
2023-03-08T02:20:27.968Z,99567.91
2023-03-08T02:22:54.319Z,99564.34
2023-03-08T02:25:23.393Z,99560.72
2023-03-08T02:27:51.477Z,99554.25
2023-03-08T02:30:24.227Z,99551.63
2023-03-08T02:32:50.637Z,99545.44
2023-03-08T02:35:17.794Z,99546.28
2023-03-08T02:37:44.443Z,99546.75
2023-03-08T02:40:11.775Z,99544.97
2023-03-08T02:42:38.293Z,99551.09
2023-03-08T02:45:05.271Z,99554.38
2023-03-08T02:47:32.216Z,99553.25
2023-03-08T02:49:58.600Z,99551.31
2023-03-08T02:52:24.963Z,99546.66
2023-03-08T02:54:51.303Z,99548.53
2023-03-08T02:57:17.609Z,99539.84
2023-03-08T02:59:45.495Z,99539.00
2023-03-08T03:02:11.974Z,99531.94
2023-03-08T03:04:38.378Z,99533.56
2023-03-08T03:07:05.150Z,99532.63
2023-03-08T03:09:34.875Z,99534.25
2023-03-08T03:12:01.893Z,99532.03
2023-03-08T03:14:30.329Z,99527.38
2023-03-08T03:16:58.276Z,99528.28
2023-03-08T03:19:25.027Z,99529.22
2023-03-08T03:21:51.579Z,99532.63
2023-03-08T03:24:18.109Z,99531.78
2023-03-08T03:26:51.195Z,99527.78
2023-03-08T03:29:18.613Z,99526.25
2023-03-08T03:31:49.163Z,99515.81
2023-03-08T03:34:16.999Z,99517.66
2023-03-08T03:36:45.055Z,99506.28
2023-03-08T03:39:11.437Z,99513.06
2023-03-08T03:41:39.697Z,99514.00
2023-03-08T03:44:10.619Z,99520.22
2023-03-08T03:46:37.643Z,99514.84
2023-03-08T03:49:06.633Z,99511.69
2023-03-08T03:51:37.312Z,99515.56
2023-03-08T03:54:11.938Z,99508.66
2023-03-08T03:56:40.041Z,99496.50
2023-03-08T03:59:07.384Z,99498.13
2023-03-08T04:01:34.182Z,99503.41
2023-03-08T04:04:12.597Z,99499.81
2023-03-08T04:06:42.452Z,99495.63
2023-03-08T04:09:15.134Z,99505.16
2023-03-08T04:11:43.655Z,99480.50
2023-03-08T04:14:15.094Z,99466.50
2023-03-08T04:16:42.362Z,99459.44
2023-03-08T04:19:16.100Z,99459.34
2023-03-08T04:21:48.868Z,99463.69
2023-03-08T04:24:17.023Z,99464.09
2023-03-08T04:26:46.053Z,99458.66
2023-03-08T04:29:16.561Z,99448.72
2023-03-08T04:31:43.265Z,99447.94
2023-03-08T04:34:12.870Z,99447.94
2023-03-08T04:36:40.921Z,99449.97
2023-03-08T04:39:08.382Z,99441.28
2023-03-08T04:41:35.467Z,99442.16
2023-03-08T04:44:13.107Z,99441.22
2023-03-08T04:46:44.264Z,99435.41
2023-03-08T04:49:15.262Z,99438.81
2023-03-08T04:51:44.753Z,99423.19
2023-03-08T04:54:12.139Z,99423.19
2023-03-08T04:56:44.723Z,99417.22
2023-03-08T04:59:13.498Z,99407.94
2023-03-08T05:01:39.967Z,99403.25
2023-03-08T05:04:06.458Z,99397.97
2023-03-08T05:06:38.236Z,99395.44
2023-03-08T05:09:05.887Z,99394.84
2023-03-08T05:11:34.104Z,99394.69
2023-03-08T05:14:00.647Z,99394.06
2023-03-08T05:16:28.207Z,99383.44
2023-03-08T05:18:54.693Z,99385.41
2023-03-08T05:21:24.605Z,99387.25
2023-03-08T05:23:59.809Z,99385.47
2023-03-08T05:26:28.587Z,99381.75
2023-03-08T05:28:55.679Z,99381.50
2023-03-08T05:31:26.214Z,99377.00
2023-03-08T05:33:54.546Z,99372.66
2023-03-08T05:36:42.590Z,99359.47
2023-03-08T05:39:10.243Z,99363.06
2023-03-08T05:41:43.464Z,99359.66
2023-03-08T05:44:11.055Z,99356.06
2023-03-08T05:46:39.237Z,99346.47
2023-03-08T05:49:07.026Z,99342.28
2023-03-08T05:51:35.190Z,99323.09
2023-03-08T05:54:02.008Z,99325.56
2023-03-08T05:56:30.177Z,99326.59
2023-03-08T05:59:07.948Z,99321.22
2023-03-08T06:01:34.361Z,99321.38
2023-03-08T06:04:10.188Z,99314.25
2023-03-08T06:06:39.681Z,99300.66
2023-03-08T06:09:07.553Z,99300.97
2023-03-08T06:11:37.052Z,99300.13
2023-03-08T06:14:04.509Z,99297.75
2023-03-08T06:16:33.377Z,99304.09
2023-03-08T06:19:01.784Z,99297.66
2023-03-08T06:21:28.579Z,99289.50
2023-03-08T06:24:01.871Z,99284.13
2023-03-08T06:26:28.596Z,99277.41
2023-03-08T06:28:55.257Z,99276.47
2023-03-08T06:31:26.085Z,99270.34
2023-03-08T06:33:52.815Z,99270.88
2023-03-08T06:36:23.435Z,99262.56
2023-03-08T06:38:50.505Z,99254.22
2023-03-08T06:41:18.181Z,99259.13
2023-03-08T06:43:48.563Z,99249.59
2023-03-08T06:46:17.143Z,99253.25
2023-03-08T06:48:44.993Z,99249.69
2023-03-08T06:51:12.046Z,99257.69
2023-03-08T06:53:42.732Z,99252.72
2023-03-08T06:56:12.689Z,99248.22
2023-03-08T06:58:39.736Z,99246.53
2023-03-08T07:01:06.390Z,99245.16
2023-03-08T07:03:33.544Z,99242.69
2023-03-08T07:06:01.217Z,99239.81
2023-03-08T07:08:27.972Z,99238.44
2023-03-08T07:10:54.582Z,99237.16
2023-03-08T07:13:23.483Z,99237.06
2023-03-08T07:15:51.118Z,99237.66
2023-03-08T07:18:18.174Z,99236.03
2023-03-08T07:20:44.886Z,99235.38
2023-03-08T07:23:11.654Z,99229.88
2023-03-08T07:25:39.881Z,99231.28
2023-03-08T07:28:06.305Z,99222.38
2023-03-08T07:30:32.639Z,99221.44
2023-03-08T07:32:59.095Z,99225.72
2023-03-08T07:35:25.538Z,99223.34
2023-03-08T07:37:51.938Z,99220.28
2023-03-08T07:40:18.463Z,99220.78
2023-03-08T07:42:44.892Z,99222.31
2023-03-08T07:45:25.319Z,99218.91
2023-03-08T07:47:52.477Z,99220.78
2023-03-08T07:50:19.610Z,99225.78
2023-03-08T07:52:46.241Z,99214.50
2023-03-08T07:55:12.829Z,99221.38
2023-03-08T07:57:39.530Z,99219.69
2023-03-08T08:00:09.262Z,99214.50
2023-03-08T08:02:41.439Z,99214.50
2023-03-08T08:05:08.280Z,99204.06
2023-03-08T08:07:34.641Z,99199.59
2023-03-08T08:10:00.947Z,99202.28
2023-03-08T08:12:27.301Z,99191.22
2023-03-08T08:14:53.633Z,99184.53
2023-03-08T08:17:21.240Z,99178.16
2023-03-08T08:19:48.241Z,99182.91
2023-03-08T08:22:15.005Z,99180.72
2023-03-08T08:24:41.389Z,99179.41
2023-03-08T08:27:07.712Z,99166.50
2023-03-08T08:29:34.048Z,99168.13
2023-03-08T08:32:00.355Z,99163.38
2023-03-08T08:34:26.716Z,99152.59
2023-03-08T08:36:53.100Z,99140.81
2023-03-08T08:39:19.454Z,99156.00
2023-03-08T08:41:45.851Z,99149.88
2023-03-08T08:44:12.177Z,99140.13
2023-03-08T08:46:38.636Z,99137.84
2023-03-08T08:49:07.591Z,99134.03
2023-03-08T08:51:34.050Z,99135.03
2023-03-08T08:54:00.468Z,99125.13
2023-03-08T08:56:28.820Z,99119.19
2023-03-08T08:59:00.921Z,99110.94
2023-03-08T09:01:31.271Z,99118.16
2023-03-08T09:03:57.918Z,99119.38
2023-03-08T09:06:25.302Z,99114.19
2023-03-08T09:08:54.807Z,99112.25
2023-03-08T09:11:21.868Z,99106.75
2023-03-08T09:13:48.268Z,99099.94
2023-03-08T09:16:18.857Z,99102.34
2023-03-08T09:18:45.350Z,99092.66
2023-03-08T09:21:11.812Z,99090.28
2023-03-08T09:23:38.142Z,99089.44
2023-03-08T09:26:06.014Z,99086.56
2023-03-08T09:28:33.003Z,99082.56
2023-03-08T09:30:59.581Z,99077.88
2023-03-08T09:33:26.067Z,99070.41
2023-03-08T09:35:59.995Z,99066.00
2023-03-08T09:38:26.659Z,99075.09
2023-03-08T09:41:04.995Z,99068.38
2023-03-08T09:43:59.171Z,99074.16
2023-03-08T09:46:35.948Z,99066.53
2023-03-08T09:49:05.300Z,99056.19
2023-03-08T09:51:36.464Z,99053.91
2023-03-08T09:54:07.659Z,99049.28
2023-03-08T09:56:51.425Z,99057.34
2023-03-08T09:59:26.753Z,99053.09
2023-03-08T10:02:16.852Z,99046.50
2023-03-08T10:05:13.426Z,99054.06
2023-03-08T10:08:08.100Z,99052.41
2023-03-08T10:10:53.707Z,99055.81
2023-03-08T10:13:35.187Z,99056.06
2023-03-08T10:16:16.730Z,99049.91
2023-03-08T10:18:46.404Z,99042.00
2023-03-08T10:21:18.224Z,99038.75
2023-03-08T10:23:47.397Z,99040.91
2023-03-08T10:26:15.252Z,99032.91
2023-03-08T10:28:41.770Z,99024.25
2023-03-08T10:31:24.230Z,99013.72
2023-03-08T10:33:57.276Z,99010.16
2023-03-08T10:36:25.468Z,99009.31
2023-03-08T10:39:07.902Z,98993.28
2023-03-08T10:41:42.232Z,98979.03
2023-03-08T10:44:40.124Z,98978.84
2023-03-08T10:47:24.302Z,98979.28
2023-03-08T10:50:18.027Z,98990.06
2023-03-08T10:52:46.018Z,98990.91
2023-03-08T10:55:16.127Z,98988.41
2023-03-08T10:57:49.283Z,98990.78
2023-03-08T11:00:29.154Z,98993.34
2023-03-08T11:03:17.130Z,98997.31
2023-03-08T11:06:04.982Z,98998.34
2023-03-08T11:08:34.687Z,98996.75
2023-03-08T11:11:10.356Z,98991.22
2023-03-08T11:13:41.920Z,98993.78
2023-03-08T11:16:32.681Z,98993.22
2023-03-08T11:19:23.024Z,98991.28
2023-03-08T11:22:04.398Z,98981.59
2023-03-08T11:24:45.049Z,98981.59
2023-03-08T11:27:25.416Z,98975.63
2023-03-08T11:30:03.795Z,98973.75
2023-03-08T11:32:57.993Z,98967.31
2023-03-08T11:35:43.260Z,98960.25
2023-03-08T11:38:18.775Z,98960.53
2023-03-08T11:40:51.224Z,98966.97
2023-03-08T11:43:38.753Z,98966.25
2023-03-08T11:46:15.835Z,98972.59
2023-03-08T11:48:45.121Z,98972.09
2023-03-08T11:51:31.177Z,98970.28
2023-03-08T11:54:09.374Z,98967.31
2023-03-08T11:56:42.930Z,98964.56
2023-03-08T11:59:25.064Z,98956.22
2023-03-08T12:02:02.524Z,98934.13
2023-03-08T12:04:47.140Z,98946.25
2023-03-08T12:07:55.903Z,98955.81
2023-03-08T12:10:31.956Z,98956.97
2023-03-08T12:13:20.417Z,98968.53
2023-03-08T12:15:53.869Z,98950.03
2023-03-08T12:18:32.079Z,98949.03
2023-03-08T12:21:10.371Z,98950.56
2023-03-08T12:23:48.601Z,98955.56
2023-03-08T12:26:24.591Z,98961.66
2023-03-08T12:28:57.134Z,98961.94
2023-03-08T12:31:31.989Z,98953.19
2023-03-08T12:34:00.015Z,98948.41
2023-03-08T12:36:38.124Z,98918.88
2023-03-08T12:39:26.306Z,98900.25
2023-03-08T12:42:01.877Z,98901.41
2023-03-08T12:44:30.745Z,98895.28
2023-03-08T12:47:15.919Z,98900.06
2023-03-08T12:49:49.781Z,98892.16
2023-03-08T12:52:19.165Z,98897.34
2023-03-08T12:54:57.483Z,98898.97
2023-03-08T12:57:29.032Z,98893.13
2023-03-08T13:00:01.572Z,98897.34
2023-03-08T13:02:31.249Z,98894.44
2023-03-08T13:05:20.879Z,98894.81
2023-03-08T13:08:00.565Z,98896.53
2023-03-08T13:10:33.405Z,98905.63
2023-03-08T13:13:10.249Z,98898.28
2023-03-08T13:15:38.466Z,98894.47
2023-03-08T13:18:08.704Z,98895.50
2023-03-08T13:20:41.939Z,98892.00
2023-03-08T13:23:14.585Z,98894.94
2023-03-08T13:25:55.966Z,98906.78
2023-03-08T13:28:45.863Z,98893.78
2023-03-08T13:31:18.483Z,98885.59
2023-03-08T13:33:49.591Z,98879.69
2023-03-08T13:36:27.473Z,98881.56
2023-03-08T13:39:04.003Z,98883.72
2023-03-08T13:41:32.333Z,98885.59
2023-03-08T13:44:03.937Z,98886.84
2023-03-08T13:46:30.488Z,98878.19
2023-03-08T13:48:56.905Z,98874.03
2023-03-08T13:51:26.869Z,98871.31
2023-03-08T13:53:54.072Z,98872.91
2023-03-08T13:56:26.018Z,98861.53
2023-03-08T13:58:54.749Z,98865.28
2023-03-08T14:01:24.400Z,98856.16
2023-03-08T14:03:53.044Z,98859.66
2023-03-08T14:06:37.903Z,98869.59
2023-03-08T14:09:05.459Z,98854.47
2023-03-08T14:11:37.991Z,98853.13
2023-03-08T14:14:10.384Z,98846.72
2023-03-08T14:16:39.630Z,98835.81
2023-03-08T14:19:21.612Z,98840.25
2023-03-08T14:21:54.406Z,98831.38
2023-03-08T14:24:31.548Z,98837.41
2023-03-08T14:27:06.348Z,98836.09
2023-03-08T14:29:34.807Z,98830.00
2023-03-08T14:32:06.726Z,98829.34
2023-03-08T14:34:36.266Z,98832.25
2023-03-08T14:37:19.899Z,98843.91
2023-03-08T14:39:48.142Z,98841.06
2023-03-08T14:42:29.934Z,98846.47
2023-03-08T14:44:59.366Z,98842.03
2023-03-08T14:47:28.475Z,98838.72
2023-03-08T14:50:17.815Z,98832.88
2023-03-08T14:52:47.117Z,98817.81
2023-03-08T14:55:34.245Z,98813.59
2023-03-08T14:58:10.391Z,98810.97
2023-03-08T15:00:37.623Z,98802.97
2023-03-08T15:03:04.015Z,98805.03
2023-03-08T15:05:30.572Z,98805.97
2023-03-08T15:07:59.513Z,98813.13
2023-03-08T15:10:37.106Z,98810.13
2023-03-08T15:13:05.598Z,98803.06
2023-03-08T15:15:31.986Z,98809.38
2023-03-08T15:17:58.369Z,98811.16
2023-03-08T15:20:24.946Z,98810.00
2023-03-08T15:22:57.255Z,98818.47
2023-03-08T15:25:29.950Z,98820.63
2023-03-08T15:27:56.369Z,98838.03
2023-03-08T15:30:25.626Z,98837.84
2023-03-08T15:32:52.141Z,98824.03
2023-03-08T15:35:19.558Z,98816.53
2023-03-08T15:37:46.285Z,98827.59
2023-03-08T15:40:26.022Z,98809.94
2023-03-08T15:42:52.478Z,98817.28
2023-03-08T15:45:18.968Z,98816.84
2023-03-08T15:47:55.773Z,98826.75
2023-03-08T15:50:22.226Z,98834.66
2023-03-08T15:52:48.786Z,98829.28
2023-03-08T15:55:15.214Z,98828.13
2023-03-08T15:57:41.773Z,98830.19
2023-03-08T16:00:12.539Z,98832.38
2023-03-08T16:02:39.587Z,98821.72
2023-03-08T16:05:08.010Z,98822.28
2023-03-08T16:07:34.594Z,98822.06
2023-03-08T16:10:01.745Z,98823.47
2023-03-08T16:12:28.170Z,98829.88
2023-03-08T16:14:54.959Z,98830.72
2023-03-08T16:17:21.361Z,98823.03
2023-03-08T16:19:47.846Z,98819.63
2023-03-08T16:22:14.247Z,98813.97
2023-03-08T16:24:40.600Z,98815.97
2023-03-08T16:27:06.938Z,98804.66
2023-03-08T16:29:34.470Z,98804.47
2023-03-08T16:32:01.100Z,98807.97
2023-03-08T16:34:29.094Z,98806.88
2023-03-08T16:36:56.752Z,98814.94
2023-03-08T16:39:24.379Z,98807.72
2023-03-08T16:41:51.508Z,98820.22
2023-03-08T16:44:27.907Z,98813.81
2023-03-08T16:46:54.708Z,98817.28
2023-03-08T16:49:22.914Z,98816.75
2023-03-08T16:51:51.836Z,98805.72
2023-03-08T16:54:18.223Z,98812.16
2023-03-08T16:56:44.690Z,98813.28
2023-03-08T16:59:13.469Z,98816.84
2023-03-08T17:01:42.600Z,98806.41
2023-03-08T17:04:10.370Z,98809.69
2023-03-08T17:06:37.210Z,98810.72
2023-03-08T17:09:05.084Z,98814.19
2023-03-08T17:11:33.862Z,98805.56
2023-03-08T17:14:02.340Z,98808.28
2023-03-08T17:16:30.643Z,98794.56
2023-03-08T17:18:59.188Z,98795.88
2023-03-08T17:21:26.359Z,98784.56
2023-03-08T17:23:53.312Z,98788.53
2023-03-08T17:26:22.018Z,98791.94
2023-03-08T17:28:53.218Z,98788.13
2023-03-08T17:31:22.120Z,98777.50
2023-03-08T17:33:49.306Z,98790.22
2023-03-08T17:36:15.838Z,98802.19
2023-03-08T17:38:42.448Z,98818.84
2023-03-08T17:41:11.155Z,98813.03
2023-03-08T17:43:39.322Z,98816.50
2023-03-08T17:46:16.071Z,98820.06
2023-03-08T17:48:43.081Z,98817.22
2023-03-08T17:51:12.873Z,98820.06
2023-03-08T17:53:39.805Z,98820.78
2023-03-08T17:56:11.806Z,98829.19
2023-03-08T17:58:38.208Z,98815.72
2023-03-08T18:01:19.665Z,98814.63
2023-03-08T18:03:47.010Z,98819.34
2023-03-08T18:06:41.172Z,98810.47
2023-03-08T18:09:13.361Z,98808.88
2023-03-08T18:11:41.080Z,98814.44
2023-03-08T18:14:10.823Z,98808.13
2023-03-08T18:16:38.408Z,98805.03
2023-03-08T18:19:05.657Z,98806.06
2023-03-08T18:21:33.797Z,98800.63
2023-03-08T18:24:00.212Z,98798.84
2023-03-08T18:26:27.240Z,98800.44
2023-03-08T18:28:53.650Z,98800.44
2023-03-08T18:31:25.789Z,98804.56
2023-03-08T18:33:54.689Z,98804.09
2023-03-08T18:36:21.517Z,98804.19
2023-03-08T18:38:47.895Z,98795.34
2023-03-08T18:41:23.106Z,98806.63
2023-03-08T18:43:50.889Z,98806.75
2023-03-08T18:46:17.445Z,98811.25
2023-03-08T18:48:46.241Z,98798.16
2023-03-08T18:51:13.087Z,98772.38
2023-03-08T18:53:40.292Z,98780.25
2023-03-08T18:56:07.172Z,98783.22
2023-03-08T18:58:33.928Z,98779.56
2023-03-08T19:01:02.657Z,98782.97
2023-03-08T19:03:30.248Z,98778.53
2023-03-08T19:05:57.017Z,98775.22
2023-03-08T19:08:23.540Z,98767.31
2023-03-08T19:10:49.948Z,98763.84
2023-03-08T19:13:16.298Z,98761.50
2023-03-08T19:15:42.689Z,98764.91
2023-03-08T19:18:10.323Z,98758.03
2023-03-08T19:20:40.995Z,98762.25
2023-03-08T19:23:09.140Z,98767.81
2023-03-08T19:25:57.086Z,98774.13
2023-03-08T19:28:23.826Z,98782.59
2023-03-08T19:30:50.304Z,98773.94
2023-03-08T19:33:29.803Z,98755.88
2023-03-08T19:35:57.261Z,98745.31
2023-03-08T19:38:23.687Z,98755.00
2023-03-08T19:40:50.038Z,98764.03
2023-03-08T19:43:16.783Z,98755.31
2023-03-08T19:45:48.958Z,98759.25
2023-03-08T19:48:15.360Z,98755.75
2023-03-08T19:50:45.832Z,98769.69
2023-03-08T19:53:12.200Z,98760.63
2023-03-08T19:55:38.616Z,98757.19
2023-03-08T19:58:06.013Z,98756.66
2023-03-08T20:00:32.429Z,98762.06
2023-03-08T20:02:59.420Z,98764.59
2023-03-08T20:05:25.776Z,98763.78
2023-03-08T20:07:52.116Z,98759.84
2023-03-08T20:10:18.774Z,98756.78
2023-03-08T20:12:45.870Z,98757.47
2023-03-08T20:15:12.426Z,98748.25
2023-03-08T20:17:38.943Z,98754.56
2023-03-08T20:20:06.411Z,98749.66
2023-03-08T20:22:32.758Z,98746.84
2023-03-08T20:24:59.071Z,98748.75
2023-03-08T20:27:25.507Z,98750.34
2023-03-08T20:29:53.163Z,98745.44
2023-03-08T20:32:19.578Z,98751.47
2023-03-08T20:34:45.927Z,98757.78
2023-03-08T20:37:12.250Z,98762.94
2023-03-08T20:39:38.568Z,98755.81
2023-03-08T20:42:04.910Z,98759.69
2023-03-08T20:44:31.233Z,98758.91
2023-03-08T20:46:57.998Z,98752.06
2023-03-08T20:49:26.159Z,98751.78
2023-03-08T20:51:52.515Z,98744.53
2023-03-08T20:54:19.639Z,98734.88
2023-03-08T20:56:46.081Z,98728.19
2023-03-08T20:59:12.443Z,98734.47
2023-03-08T21:01:40.668Z,98739.56
2023-03-08T21:04:07.134Z,98744.16
2023-03-08T21:06:33.718Z,98736.28
2023-03-08T21:09:00.671Z,98728.84
2023-03-08T21:11:27.901Z,98734.88
2023-03-08T21:13:55.483Z,98723.41
2023-03-08T21:16:24.800Z,98724.22
2023-03-08T21:18:53.110Z,98719.44
2023-03-08T21:21:21.538Z,98717.38
2023-03-08T21:23:49.762Z,98711.06
2023-03-08T21:26:16.083Z,98712.66
2023-03-08T21:28:42.408Z,98716.34
2023-03-08T21:31:12.697Z,98715.91
2023-03-08T21:33:39.113Z,98717.50
2023-03-08T21:36:05.669Z,98711.47
2023-03-08T21:38:32.064Z,98705.16
2023-03-08T21:40:58.449Z,98708.63
2023-03-08T21:43:24.913Z,98704.31
2023-03-08T21:45:51.302Z,98692.56
2023-03-08T21:48:17.647Z,98703.09
2023-03-08T21:50:44.012Z,98694.38
2023-03-08T21:53:10.429Z,98697.56
2023-03-08T21:55:40.776Z,98692.28
2023-03-08T21:58:08.708Z,98689.09
2023-03-08T22:00:35.383Z,98687.31
2023-03-08T22:03:01.791Z,98685.53
2023-03-08T22:05:29.775Z,98679.13
2023-03-08T22:07:56.117Z,98677.81
2023-03-08T22:10:22.518Z,98682.13
2023-03-08T22:12:48.857Z,98673.38
2023-03-08T22:15:15.727Z,98669.16
2023-03-08T22:17:42.575Z,98663.69
2023-03-08T22:20:10.664Z,98656.84
2023-03-08T22:22:37.723Z,98665.88
2023-03-08T22:25:04.960Z,98646.31
2023-03-08T22:27:32.096Z,98642.75
2023-03-08T22:29:58.732Z,98642.22
2023-03-08T22:32:25.609Z,98643.03
2023-03-08T22:34:52.091Z,98639.84
2023-03-08T22:37:18.502Z,98631.28
2023-03-08T22:39:44.828Z,98624.97
2023-03-08T22:42:11.269Z,98623.66
2023-03-08T22:44:37.635Z,98626.97
2023-03-08T22:47:04.319Z,98628.72
2023-03-08T22:49:30.692Z,98620.75
2023-03-08T22:51:57.083Z,98624.88
2023-03-08T22:54:23.760Z,98609.16
2023-03-08T22:56:50.552Z,98608.13
2023-03-08T22:59:17.173Z,98601.81
2023-03-08T23:01:43.653Z,98595.09
2023-03-08T23:04:11.921Z,98594.13
2023-03-08T23:06:38.926Z,98594.03
2023-03-08T23:09:08.146Z,98592.03
2023-03-08T23:11:35.260Z,98593.53
2023-03-08T23:14:01.820Z,98592.50
2023-03-08T23:16:28.423Z,98600.78
2023-03-08T23:18:55.607Z,98599.72
2023-03-08T23:21:24.291Z,98606.03
2023-03-08T23:23:50.993Z,98604.91
2023-03-08T23:26:24.631Z,98598.41
2023-03-08T23:28:51.027Z,98601.22
2023-03-08T23:31:20.589Z,98601.78
2023-03-08T23:33:48.864Z,98600.59
2023-03-08T23:36:18.920Z,98599.94
2023-03-08T23:38:45.722Z,98603.22
2023-03-08T23:41:14.192Z,98592.03
2023-03-08T23:43:41.260Z,98591.19
2023-03-08T23:46:12.891Z,98589.66
2023-03-08T23:48:39.604Z,98589.13
2023-03-08T23:51:08.860Z,98594.28
2023-03-08T23:53:35.331Z,98587.84
2023-03-08T23:56:02.232Z,98582.41
2023-03-08T23:58:28.599Z,98582.50
